sensor_id;sensor_type;location;lat;lon;timestamp;P1;durP1;ratioP1;P2;durP2;ratioP2
4208;SDS011;36320;48.860;2.380;2023-05-07T00:01:56;7.00;;;1.30;;
4208;SDS011;36320;48.860;2.380;2023-05-07T00:04:23;7.75;;;1.10;;
4208;SDS011;36320;48.860;2.380;2023-05-07T00:06:48;7.40;;;1.20;;
4208;SDS011;36320;48.860;2.380;2023-05-07T00:09:14;6.10;;;1.00;;
4208;SDS011;36320;48.860;2.380;2023-05-07T00:11:41;6.63;;;1.23;;
4208;SDS011;36320;48.860;2.380;2023-05-07T00:14:07;6.10;;;1.10;;
4208;SDS011;36320;48.860;2.380;2023-05-07T00:16:32;6.18;;;1.00;;
4208;SDS011;36320;48.860;2.380;2023-05-07T00:18:58;8.40;;;1.40;;
4208;SDS011;36320;48.860;2.380;2023-05-07T00:21:25;8.50;;;1.30;;
4208;SDS011;36320;48.860;2.380;2023-05-07T00:23:53;7.00;;;1.40;;
4208;SDS011;36320;48.860;2.380;2023-05-07T00:26:19;6.50;;;1.20;;
4208;SDS011;36320;48.860;2.380;2023-05-07T00:28:45;6.00;;;1.00;;
4208;SDS011;36320;48.860;2.380;2023-05-07T00:31:11;7.80;;;1.20;;
4208;SDS011;36320;48.860;2.380;2023-05-07T00:33:37;6.50;;;1.10;;
4208;SDS011;36320;48.860;2.380;2023-05-07T00:36:03;6.10;;;1.00;;
4208;SDS011;36320;48.860;2.380;2023-05-07T00:38:29;6.72;;;1.20;;
4208;SDS011;36320;48.860;2.380;2023-05-07T00:40:55;6.40;;;1.20;;
4208;SDS011;36320;48.860;2.380;2023-05-07T00:43:20;6.80;;;1.10;;
4208;SDS011;36320;48.860;2.380;2023-05-07T00:45:46;6.00;;;1.00;;
4208;SDS011;36320;48.860;2.380;2023-05-07T00:48:12;7.50;;;1.10;;
4208;SDS011;36320;48.860;2.380;2023-05-07T00:50:38;7.53;;;1.20;;
4208;SDS011;36320;48.860;2.380;2023-05-07T00:53:04;6.57;;;1.10;;
4208;SDS011;36320;48.860;2.380;2023-05-07T00:55:31;6.30;;;1.10;;
4208;SDS011;36320;48.860;2.380;2023-05-07T00:57:57;6.40;;;1.10;;
4208;SDS011;36320;48.860;2.380;2023-05-07T01:00:23;7.00;;;1.13;;
4208;SDS011;36320;48.860;2.380;2023-05-07T01:02:50;7.90;;;1.00;;
4208;SDS011;36320;48.860;2.380;2023-05-07T01:05:17;6.90;;;1.10;;
4208;SDS011;36320;48.860;2.380;2023-05-07T01:07:45;6.50;;;1.10;;
4208;SDS011;36320;48.860;2.380;2023-05-07T01:10:12;6.85;;;1.42;;
4208;SDS011;36320;48.860;2.380;2023-05-07T01:12:38;6.88;;;1.10;;
4208;SDS011;36320;48.860;2.380;2023-05-07T01:15:06;6.20;;;1.10;;
4208;SDS011;36320;48.860;2.380;2023-05-07T01:17:35;6.90;;;0.90;;
4208;SDS011;36320;48.860;2.380;2023-05-07T01:20:01;6.80;;;1.07;;
4208;SDS011;36320;48.860;2.380;2023-05-07T01:22:33;8.25;;;1.05;;
4208;SDS011;36320;48.860;2.380;2023-05-07T01:24:59;5.80;;;0.90;;
4208;SDS011;36320;48.860;2.380;2023-05-07T01:27:26;6.32;;;1.05;;
4208;SDS011;36320;48.860;2.380;2023-05-07T01:29:52;7.55;;;1.20;;
4208;SDS011;36320;48.860;2.380;2023-05-07T01:32:19;6.00;;;1.00;;
4208;SDS011;36320;48.860;2.380;2023-05-07T01:34:50;6.00;;;1.00;;
4208;SDS011;36320;48.860;2.380;2023-05-07T01:37:18;5.93;;;0.95;;
4208;SDS011;36320;48.860;2.380;2023-05-07T01:39:45;7.50;;;1.20;;
4208;SDS011;36320;48.860;2.380;2023-05-07T01:42:11;6.50;;;1.00;;
4208;SDS011;36320;48.860;2.380;2023-05-07T01:44:37;6.10;;;1.00;;
4208;SDS011;36320;48.860;2.380;2023-05-07T01:47:03;7.32;;;1.02;;
4208;SDS011;36320;48.860;2.380;2023-05-07T01:49:29;5.93;;;1.00;;
4208;SDS011;36320;48.860;2.380;2023-05-07T01:51:55;5.95;;;1.00;;
4208;SDS011;36320;48.860;2.380;2023-05-07T01:54:25;6.90;;;1.40;;
4208;SDS011;36320;48.860;2.380;2023-05-07T01:56:58;8.10;;;1.00;;
4208;SDS011;36320;48.860;2.380;2023-05-07T01:59:25;9.40;;;1.60;;
4208;SDS011;36320;48.860;2.380;2023-05-07T02:01:50;6.00;;;1.00;;
4208;SDS011;36320;48.860;2.380;2023-05-07T02:04:17;9.07;;;1.25;;
4208;SDS011;36320;48.860;2.380;2023-05-07T02:06:43;6.50;;;1.30;;
4208;SDS011;36320;48.860;2.380;2023-05-07T02:09:08;7.45;;;1.20;;
4208;SDS011;36320;48.860;2.380;2023-05-07T02:11:34;8.20;;;1.10;;
4208;SDS011;36320;48.860;2.380;2023-05-07T02:14:00;8.80;;;1.30;;
4208;SDS011;36320;48.860;2.380;2023-05-07T02:16:26;6.53;;;1.10;;
4208;SDS011;36320;48.860;2.380;2023-05-07T02:18:51;7.30;;;1.20;;
4208;SDS011;36320;48.860;2.380;2023-05-07T02:21:18;6.20;;;1.10;;
4208;SDS011;36320;48.860;2.380;2023-05-07T02:23:44;7.20;;;1.20;;
4208;SDS011;36320;48.860;2.380;2023-05-07T02:26:10;6.72;;;1.20;;
4208;SDS011;36320;48.860;2.380;2023-05-07T02:28:36;6.70;;;1.52;;
4208;SDS011;36320;48.860;2.380;2023-05-07T02:31:04;6.40;;;1.00;;
4208;SDS011;36320;48.860;2.380;2023-05-07T02:33:30;6.40;;;1.13;;
4208;SDS011;36320;48.860;2.380;2023-05-07T02:35:56;6.60;;;1.10;;
4208;SDS011;36320;48.860;2.380;2023-05-07T02:38:22;7.40;;;1.00;;
4208;SDS011;36320;48.860;2.380;2023-05-07T02:40:48;6.32;;;1.10;;
4208;SDS011;36320;48.860;2.380;2023-05-07T02:43:14;7.13;;;1.30;;
4208;SDS011;36320;48.860;2.380;2023-05-07T02:45:39;6.75;;;1.13;;
4208;SDS011;36320;48.860;2.380;2023-05-07T02:48:05;7.97;;;1.10;;
4208;SDS011;36320;48.860;2.380;2023-05-07T02:50:31;7.70;;;1.10;;
4208;SDS011;36320;48.860;2.380;2023-05-07T02:52:57;6.80;;;1.30;;
4208;SDS011;36320;48.860;2.380;2023-05-07T02:55:23;6.38;;;1.10;;
4208;SDS011;36320;48.860;2.380;2023-05-07T02:57:49;6.00;;;1.00;;
4208;SDS011;36320;48.860;2.380;2023-05-07T03:00:16;6.10;;;1.10;;
4208;SDS011;36320;48.860;2.380;2023-05-07T03:02:44;8.30;;;1.00;;
4208;SDS011;36320;48.860;2.380;2023-05-07T03:05:10;6.90;;;1.40;;
4208;SDS011;36320;48.860;2.380;2023-05-07T03:07:36;6.10;;;1.00;;
4208;SDS011;36320;48.860;2.380;2023-05-07T03:10:03;7.57;;;1.20;;
4208;SDS011;36320;48.860;2.380;2023-05-07T03:12:29;7.55;;;1.27;;
4208;SDS011;36320;48.860;2.380;2023-05-07T03:14:55;6.60;;;1.10;;
4208;SDS011;36320;48.860;2.380;2023-05-07T03:17:21;7.40;;;1.20;;
4208;SDS011;36320;48.860;2.380;2023-05-07T03:19:46;6.40;;;1.20;;
4208;SDS011;36320;48.860;2.380;2023-05-07T03:22:13;6.15;;;1.10;;
4208;SDS011;36320;48.860;2.380;2023-05-07T03:24:39;6.40;;;1.00;;
4208;SDS011;36320;48.860;2.380;2023-05-07T03:27:05;6.47;;;1.20;;
4208;SDS011;36320;48.860;2.380;2023-05-07T03:29:30;6.60;;;1.10;;
4208;SDS011;36320;48.860;2.380;2023-05-07T03:31:56;6.30;;;1.10;;
4208;SDS011;36320;48.860;2.380;2023-05-07T03:34:22;7.55;;;1.50;;
4208;SDS011;36320;48.860;2.380;2023-05-07T03:36:48;6.60;;;1.33;;
4208;SDS011;36320;48.860;2.380;2023-05-07T03:39:14;6.68;;;1.20;;
4208;SDS011;36320;48.860;2.380;2023-05-07T03:41:40;7.40;;;1.20;;
4208;SDS011;36320;48.860;2.380;2023-05-07T03:44:06;8.13;;;1.35;;
4208;SDS011;36320;48.860;2.380;2023-05-07T03:46:31;8.33;;;1.10;;
4208;SDS011;36320;48.860;2.380;2023-05-07T03:48:58;6.50;;;1.30;;
4208;SDS011;36320;48.860;2.380;2023-05-07T03:51:23;10.93;;;1.37;;
4208;SDS011;36320;48.860;2.380;2023-05-07T03:53:50;6.60;;;1.40;;
4208;SDS011;36320;48.860;2.380;2023-05-07T03:56:19;9.20;;;1.50;;
4208;SDS011;36320;48.860;2.380;2023-05-07T03:58:46;6.75;;;1.30;;
4208;SDS011;36320;48.860;2.380;2023-05-07T04:01:12;6.80;;;1.10;;
4208;SDS011;36320;48.860;2.380;2023-05-07T04:03:38;7.60;;;1.23;;
4208;SDS011;36320;48.860;2.380;2023-05-07T04:06:03;6.43;;;1.30;;
4208;SDS011;36320;48.860;2.380;2023-05-07T04:08:29;6.07;;;1.00;;
4208;SDS011;36320;48.860;2.380;2023-05-07T04:10:56;6.60;;;1.30;;
4208;SDS011;36320;48.860;2.380;2023-05-07T04:13:22;6.00;;;0.95;;
4208;SDS011;36320;48.860;2.380;2023-05-07T04:15:48;5.73;;;0.87;;
4208;SDS011;36320;48.860;2.380;2023-05-07T04:18:14;6.20;;;1.10;;
4208;SDS011;36320;48.860;2.380;2023-05-07T04:20:40;6.10;;;1.00;;
4208;SDS011;36320;48.860;2.380;2023-05-07T04:23:06;6.07;;;1.00;;
4208;SDS011;36320;48.860;2.380;2023-05-07T04:25:32;6.07;;;1.00;;
4208;SDS011;36320;48.860;2.380;2023-05-07T04:27:58;6.70;;;1.40;;
4208;SDS011;36320;48.860;2.380;2023-05-07T04:30:23;6.40;;;1.07;;
4208;SDS011;36320;48.860;2.380;2023-05-07T04:32:50;5.90;;;1.00;;
4208;SDS011;36320;48.860;2.380;2023-05-07T04:35:15;6.30;;;1.10;;
4208;SDS011;36320;48.860;2.380;2023-05-07T04:37:42;6.57;;;1.20;;
4208;SDS011;36320;48.860;2.380;2023-05-07T04:40:09;6.40;;;1.25;;
4208;SDS011;36320;48.860;2.380;2023-05-07T04:42:35;6.20;;;1.10;;
4208;SDS011;36320;48.860;2.380;2023-05-07T04:45:02;8.40;;;1.20;;
4208;SDS011;36320;48.860;2.380;2023-05-07T04:47:29;6.30;;;1.00;;
4208;SDS011;36320;48.860;2.380;2023-05-07T04:49:55;5.87;;;0.90;;
4208;SDS011;36320;48.860;2.380;2023-05-07T04:52:22;7.03;;;1.60;;
4208;SDS011;36320;48.860;2.380;2023-05-07T04:54:48;7.30;;;1.10;;
4208;SDS011;36320;48.860;2.380;2023-05-07T04:57:13;7.13;;;2.03;;
4208;SDS011;36320;48.860;2.380;2023-05-07T04:59:39;6.00;;;1.00;;
4208;SDS011;36320;48.860;2.380;2023-05-07T05:02:05;7.32;;;1.40;;
4208;SDS011;36320;48.860;2.380;2023-05-07T05:04:30;6.00;;;0.90;;
4208;SDS011;36320;48.860;2.380;2023-05-07T05:06:56;6.50;;;1.27;;
4208;SDS011;36320;48.860;2.380;2023-05-07T05:09:22;8.60;;;0.93;;
4208;SDS011;36320;48.860;2.380;2023-05-07T05:11:47;6.82;;;1.00;;
4208;SDS011;36320;48.860;2.380;2023-05-07T05:14:13;6.60;;;1.17;;
4208;SDS011;36320;48.860;2.380;2023-05-07T05:16:38;6.40;;;1.20;;
4208;SDS011;36320;48.860;2.380;2023-05-07T05:19:04;7.50;;;1.30;;
4208;SDS011;36320;48.860;2.380;2023-05-07T05:21:30;6.60;;;1.00;;
4208;SDS011;36320;48.860;2.380;2023-05-07T05:23:57;6.20;;;1.00;;
4208;SDS011;36320;48.860;2.380;2023-05-07T05:26:23;6.70;;;1.00;;
4208;SDS011;36320;48.860;2.380;2023-05-07T05:28:52;6.05;;;1.00;;
4208;SDS011;36320;48.860;2.380;2023-05-07T05:31:17;6.10;;;0.90;;
4208;SDS011;36320;48.860;2.380;2023-05-07T05:33:43;7.90;;;1.00;;
4208;SDS011;36320;48.860;2.380;2023-05-07T05:36:09;6.00;;;0.90;;
4208;SDS011;36320;48.860;2.380;2023-05-07T05:38:36;5.80;;;0.90;;
4208;SDS011;36320;48.860;2.380;2023-05-07T05:41:02;6.17;;;1.10;;
4208;SDS011;36320;48.860;2.380;2023-05-07T05:43:28;6.32;;;1.00;;
4208;SDS011;36320;48.860;2.380;2023-05-07T05:45:55;7.20;;;1.00;;
4208;SDS011;36320;48.860;2.380;2023-05-07T05:48:21;9.18;;;1.10;;
4208;SDS011;36320;48.860;2.380;2023-05-07T05:50:46;8.05;;;1.10;;
4208;SDS011;36320;48.860;2.380;2023-05-07T05:53:12;6.83;;;1.03;;
4208;SDS011;36320;48.860;2.380;2023-05-07T05:55:37;6.70;;;1.20;;
4208;SDS011;36320;48.860;2.380;2023-05-07T05:58:03;6.07;;;1.00;;
4208;SDS011;36320;48.860;2.380;2023-05-07T06:00:29;6.40;;;1.20;;
4208;SDS011;36320;48.860;2.380;2023-05-07T06:02:55;5.90;;;1.00;;
4208;SDS011;36320;48.860;2.380;2023-05-07T06:05:21;5.85;;;0.98;;
4208;SDS011;36320;48.860;2.380;2023-05-07T06:07:46;11.90;;;1.10;;
4208;SDS011;36320;48.860;2.380;2023-05-07T06:10:12;5.80;;;1.00;;
4208;SDS011;36320;48.860;2.380;2023-05-07T06:12:37;5.90;;;0.90;;
4208;SDS011;36320;48.860;2.380;2023-05-07T06:15:03;6.60;;;1.00;;
4208;SDS011;36320;48.860;2.380;2023-05-07T06:17:29;7.70;;;1.00;;
4208;SDS011;36320;48.860;2.380;2023-05-07T06:19:55;7.20;;;1.20;;
4208;SDS011;36320;48.860;2.380;2023-05-07T06:22:22;8.50;;;1.30;;
4208;SDS011;36320;48.860;2.380;2023-05-07T06:24:48;6.65;;;1.20;;
4208;SDS011;36320;48.860;2.380;2023-05-07T06:27:13;6.77;;;0.93;;
4208;SDS011;36320;48.860;2.380;2023-05-07T06:29:39;6.20;;;1.00;;
4208;SDS011;36320;48.860;2.380;2023-05-07T06:32:12;6.20;;;1.00;;
4208;SDS011;36320;48.860;2.380;2023-05-07T06:34:39;10.55;;;1.30;;
4208;SDS011;36320;48.860;2.380;2023-05-07T06:37:06;8.50;;;1.20;;
4208;SDS011;36320;48.860;2.380;2023-05-07T06:39:31;6.05;;;1.08;;
4208;SDS011;36320;48.860;2.380;2023-05-07T06:41:57;6.10;;;1.00;;
4208;SDS011;36320;48.860;2.380;2023-05-07T06:44:24;6.07;;;1.00;;
4208;SDS011;36320;48.860;2.380;2023-05-07T06:46:50;5.90;;;1.00;;
4208;SDS011;36320;48.860;2.380;2023-05-07T06:49:16;6.00;;;1.00;;
4208;SDS011;36320;48.860;2.380;2023-05-07T06:51:41;6.17;;;1.00;;
4208;SDS011;36320;48.860;2.380;2023-05-07T06:54:08;6.57;;;1.00;;
4208;SDS011;36320;48.860;2.380;2023-05-07T06:56:34;5.80;;;0.90;;
4208;SDS011;36320;48.860;2.380;2023-05-07T06:59:00;6.00;;;0.90;;
4208;SDS011;36320;48.860;2.380;2023-05-07T07:01:26;6.90;;;1.00;;
4208;SDS011;36320;48.860;2.380;2023-05-07T07:03:52;5.80;;;0.90;;
4208;SDS011;36320;48.860;2.380;2023-05-07T07:06:18;6.60;;;1.20;;
4208;SDS011;36320;48.860;2.380;2023-05-07T07:08:44;7.00;;;1.25;;
4208;SDS011;36320;48.860;2.380;2023-05-07T07:11:09;6.80;;;1.20;;
4208;SDS011;36320;48.860;2.380;2023-05-07T07:13:35;5.70;;;0.90;;
4208;SDS011;36320;48.860;2.380;2023-05-07T07:16:01;6.30;;;1.00;;
4208;SDS011;36320;48.860;2.380;2023-05-07T07:18:27;6.20;;;1.00;;
4208;SDS011;36320;48.860;2.380;2023-05-07T07:20:53;6.47;;;1.20;;
4208;SDS011;36320;48.860;2.380;2023-05-07T07:23:20;8.20;;;1.73;;
4208;SDS011;36320;48.860;2.380;2023-05-07T07:25:45;7.40;;;1.05;;
4208;SDS011;36320;48.860;2.380;2023-05-07T07:28:11;6.50;;;1.00;;
4208;SDS011;36320;48.860;2.380;2023-05-07T07:30:37;6.18;;;1.10;;
4208;SDS011;36320;48.860;2.380;2023-05-07T07:33:05;6.63;;;1.40;;
4208;SDS011;36320;48.860;2.380;2023-05-07T07:35:31;6.13;;;1.02;;
4208;SDS011;36320;48.860;2.380;2023-05-07T07:37:57;6.03;;;0.98;;
4208;SDS011;36320;48.860;2.380;2023-05-07T07:40:23;7.65;;;1.25;;
4208;SDS011;36320;48.860;2.380;2023-05-07T07:42:50;6.20;;;1.20;;
4208;SDS011;36320;48.860;2.380;2023-05-07T07:45:18;6.70;;;1.30;;
4208;SDS011;36320;48.860;2.380;2023-05-07T07:47:45;7.43;;;1.50;;
4208;SDS011;36320;48.860;2.380;2023-05-07T07:50:11;7.47;;;1.20;;
4208;SDS011;36320;48.860;2.380;2023-05-07T07:52:37;5.80;;;1.00;;
4208;SDS011;36320;48.860;2.380;2023-05-07T07:55:03;6.60;;;1.20;;
4208;SDS011;36320;48.860;2.380;2023-05-07T07:57:29;6.78;;;1.10;;
4208;SDS011;36320;48.860;2.380;2023-05-07T07:59:55;7.00;;;1.30;;
4208;SDS011;36320;48.860;2.380;2023-05-07T08:02:22;5.90;;;1.00;;
4208;SDS011;36320;48.860;2.380;2023-05-07T08:04:48;6.00;;;0.95;;
4208;SDS011;36320;48.860;2.380;2023-05-07T08:07:14;7.10;;;1.23;;
4208;SDS011;36320;48.860;2.380;2023-05-07T08:09:40;8.23;;;1.05;;
4208;SDS011;36320;48.860;2.380;2023-05-07T08:12:06;5.90;;;1.00;;
4208;SDS011;36320;48.860;2.380;2023-05-07T08:14:34;5.90;;;0.90;;
4208;SDS011;36320;48.860;2.380;2023-05-07T08:17:02;6.28;;;1.00;;
4208;SDS011;36320;48.860;2.380;2023-05-07T08:19:28;6.55;;;1.40;;
4208;SDS011;36320;48.860;2.380;2023-05-07T08:21:54;5.90;;;1.00;;
4208;SDS011;36320;48.860;2.380;2023-05-07T08:24:21;6.57;;;1.30;;
4208;SDS011;36320;48.860;2.380;2023-05-07T08:26:48;6.10;;;1.10;;
4208;SDS011;36320;48.860;2.380;2023-05-07T08:29:16;6.70;;;1.20;;
4208;SDS011;36320;48.860;2.380;2023-05-07T08:31:41;8.48;;;1.30;;
4208;SDS011;36320;48.860;2.380;2023-05-07T08:34:07;6.43;;;1.00;;
4208;SDS011;36320;48.860;2.380;2023-05-07T08:36:34;7.90;;;1.20;;
4208;SDS011;36320;48.860;2.380;2023-05-07T08:39:01;6.55;;;1.20;;
4208;SDS011;36320;48.860;2.380;2023-05-07T08:41:27;6.00;;;1.00;;
4208;SDS011;36320;48.860;2.380;2023-05-07T08:43:53;6.88;;;1.30;;
4208;SDS011;36320;48.860;2.380;2023-05-07T08:46:31;6.20;;;1.00;;
4208;SDS011;36320;48.860;2.380;2023-05-07T08:48:57;6.00;;;1.00;;
4208;SDS011;36320;48.860;2.380;2023-05-07T08:51:23;6.70;;;1.27;;
4208;SDS011;36320;48.860;2.380;2023-05-07T08:53:49;7.30;;;1.20;;
4208;SDS011;36320;48.860;2.380;2023-05-07T08:56:15;6.20;;;1.10;;
4208;SDS011;36320;48.860;2.380;2023-05-07T08:58:42;7.40;;;1.23;;
4208;SDS011;36320;48.860;2.380;2023-05-07T09:01:10;6.68;;;1.00;;
4208;SDS011;36320;48.860;2.380;2023-05-07T09:03:39;6.38;;;1.17;;
4208;SDS011;36320;48.860;2.380;2023-05-07T09:06:08;6.00;;;1.00;;
4208;SDS011;36320;48.860;2.380;2023-05-07T09:08:34;6.53;;;1.20;;
4208;SDS011;36320;48.860;2.380;2023-05-07T09:11:01;6.20;;;1.00;;
4208;SDS011;36320;48.860;2.380;2023-05-07T09:13:27;6.40;;;1.13;;
4208;SDS011;36320;48.860;2.380;2023-05-07T09:15:53;7.05;;;1.20;;
4208;SDS011;36320;48.860;2.380;2023-05-07T09:18:25;7.90;;;1.20;;
4208;SDS011;36320;48.860;2.380;2023-05-07T09:20:51;6.50;;;1.10;;
4208;SDS011;36320;48.860;2.380;2023-05-07T09:23:17;6.40;;;1.10;;
4208;SDS011;36320;48.860;2.380;2023-05-07T09:25:42;12.13;;;1.23;;
4208;SDS011;36320;48.860;2.380;2023-05-07T09:28:09;6.40;;;1.20;;
4208;SDS011;36320;48.860;2.380;2023-05-07T09:30:35;7.40;;;1.30;;
4208;SDS011;36320;48.860;2.380;2023-05-07T09:33:02;6.97;;;1.30;;
4208;SDS011;36320;48.860;2.380;2023-05-07T09:35:29;7.93;;;1.00;;
4208;SDS011;36320;48.860;2.380;2023-05-07T09:37:59;7.40;;;1.30;;
4208;SDS011;36320;48.860;2.380;2023-05-07T09:40:26;7.80;;;1.00;;
4208;SDS011;36320;48.860;2.380;2023-05-07T09:42:54;6.97;;;1.20;;
4208;SDS011;36320;48.860;2.380;2023-05-07T09:45:28;6.60;;;1.30;;
4208;SDS011;36320;48.860;2.380;2023-05-07T09:47:56;6.60;;;1.30;;
4208;SDS011;36320;48.860;2.380;2023-05-07T09:50:25;6.50;;;1.10;;
4208;SDS011;36320;48.860;2.380;2023-05-07T09:52:57;6.28;;;1.20;;
4208;SDS011;36320;48.860;2.380;2023-05-07T09:55:23;6.53;;;1.00;;
4208;SDS011;36320;48.860;2.380;2023-05-07T09:57:53;6.25;;;1.17;;
4208;SDS011;36320;48.860;2.380;2023-05-07T10:00:22;6.13;;;1.20;;
4208;SDS011;36320;48.860;2.380;2023-05-07T10:02:49;9.63;;;1.30;;
4208;SDS011;36320;48.860;2.380;2023-05-07T10:05:19;7.05;;;1.30;;
4208;SDS011;36320;48.860;2.380;2023-05-07T10:07:46;9.50;;;1.42;;
4208;SDS011;36320;48.860;2.380;2023-05-07T10:10:14;6.38;;;1.20;;
4208;SDS011;36320;48.860;2.380;2023-05-07T10:12:41;6.50;;;1.40;;
4208;SDS011;36320;48.860;2.380;2023-05-07T10:15:08;6.75;;;1.30;;
4208;SDS011;36320;48.860;2.380;2023-05-07T10:17:40;6.03;;;1.00;;
4208;SDS011;36320;48.860;2.380;2023-05-07T10:20:09;6.57;;;1.10;;
4208;SDS011;36320;48.860;2.380;2023-05-07T10:22:43;6.40;;;1.20;;
4208;SDS011;36320;48.860;2.380;2023-05-07T10:25:16;6.25;;;1.15;;
4208;SDS011;36320;48.860;2.380;2023-05-07T10:27:46;7.03;;;1.10;;
4208;SDS011;36320;48.860;2.380;2023-05-07T10:30:30;7.80;;;1.20;;
4208;SDS011;36320;48.860;2.380;2023-05-07T10:33:19;6.70;;;1.30;;
4208;SDS011;36320;48.860;2.380;2023-05-07T10:35:51;8.05;;;1.23;;
4208;SDS011;36320;48.860;2.380;2023-05-07T10:38:26;6.40;;;1.30;;
4208;SDS011;36320;48.860;2.380;2023-05-07T10:40:52;8.48;;;1.70;;
4208;SDS011;36320;48.860;2.380;2023-05-07T10:43:19;6.83;;;1.20;;
4208;SDS011;36320;48.860;2.380;2023-05-07T10:46:08;7.45;;;1.27;;
4208;SDS011;36320;48.860;2.380;2023-05-07T10:51:28;7.65;;;1.20;;
4208;SDS011;36320;48.860;2.380;2023-05-07T10:56:39;7.00;;;1.40;;
4208;SDS011;36320;48.860;2.380;2023-05-07T11:02:07;6.70;;;1.40;;
4208;SDS011;36320;48.860;2.380;2023-05-07T11:04:34;6.80;;;1.30;;
4208;SDS011;36320;48.860;2.380;2023-05-07T11:17:31;6.72;;;1.35;;
4208;SDS011;36320;48.860;2.380;2023-05-07T11:20:05;8.73;;;1.30;;
4208;SDS011;36320;48.860;2.380;2023-05-07T11:24:57;7.38;;;1.40;;
4208;SDS011;36320;48.860;2.380;2023-05-07T11:27:25;6.50;;;1.40;;
4208;SDS011;36320;48.860;2.380;2023-05-07T11:29:51;9.50;;;1.50;;
4208;SDS011;36320;48.860;2.380;2023-05-07T11:34:57;7.28;;;1.58;;
4208;SDS011;36320;48.860;2.380;2023-05-07T11:37:24;7.20;;;1.70;;
4208;SDS011;36320;48.860;2.380;2023-05-07T11:40:01;9.45;;;1.70;;
4208;SDS011;36320;48.860;2.380;2023-05-07T11:42:33;9.02;;;2.10;;
4208;SDS011;36320;48.860;2.380;2023-05-07T11:45:03;8.00;;;1.40;;
4208;SDS011;36320;48.860;2.380;2023-05-07T11:47:33;6.50;;;1.40;;
4208;SDS011;36320;48.860;2.380;2023-05-07T11:50:05;7.63;;;1.40;;
4208;SDS011;36320;48.860;2.380;2023-05-07T11:52:32;8.53;;;1.60;;
4208;SDS011;36320;48.860;2.380;2023-05-07T11:54:58;9.00;;;1.70;;
4208;SDS011;36320;48.860;2.380;2023-05-07T11:57:25;8.23;;;2.00;;
4208;SDS011;36320;48.860;2.380;2023-05-07T11:59:55;7.78;;;1.85;;
4208;SDS011;36320;48.860;2.380;2023-05-07T12:02:22;7.20;;;1.50;;
4208;SDS011;36320;48.860;2.380;2023-05-07T12:04:50;9.27;;;2.20;;
4208;SDS011;36320;48.860;2.380;2023-05-07T12:07:16;8.85;;;1.73;;
4208;SDS011;36320;48.860;2.380;2023-05-07T12:09:43;7.60;;;1.75;;
4208;SDS011;36320;48.860;2.380;2023-05-07T12:12:11;7.00;;;1.60;;
4208;SDS011;36320;48.860;2.380;2023-05-07T12:14:43;7.20;;;1.60;;
4208;SDS011;36320;48.860;2.380;2023-05-07T12:17:11;7.43;;;1.88;;
4208;SDS011;36320;48.860;2.380;2023-05-07T12:19:39;6.68;;;1.30;;
4208;SDS011;36320;48.860;2.380;2023-05-07T12:22:07;7.60;;;1.60;;
4208;SDS011;36320;48.860;2.380;2023-05-07T12:24:46;6.60;;;1.30;;
4208;SDS011;36320;48.860;2.380;2023-05-07T12:27:16;7.40;;;1.60;;
4208;SDS011;36320;48.860;2.380;2023-05-07T12:29:49;11.55;;;2.13;;
4208;SDS011;36320;48.860;2.380;2023-05-07T12:32:24;8.50;;;2.10;;
4208;SDS011;36320;48.860;2.380;2023-05-07T12:34:50;6.93;;;1.70;;
4208;SDS011;36320;48.860;2.380;2023-05-07T12:37:23;7.72;;;1.60;;
4208;SDS011;36320;48.860;2.380;2023-05-07T12:40:03;7.65;;;1.70;;
4208;SDS011;36320;48.860;2.380;2023-05-07T12:42:39;8.80;;;1.90;;
4208;SDS011;36320;48.860;2.380;2023-05-07T12:45:09;7.25;;;1.40;;
4208;SDS011;36320;48.860;2.380;2023-05-07T12:47:35;7.15;;;1.40;;
4208;SDS011;36320;48.860;2.380;2023-05-07T12:50:07;7.00;;;1.50;;
4208;SDS011;36320;48.860;2.380;2023-05-07T12:52:35;8.60;;;2.10;;
4208;SDS011;36320;48.860;2.380;2023-05-07T12:55:05;7.72;;;2.10;;
4208;SDS011;36320;48.860;2.380;2023-05-07T12:57:42;7.47;;;1.60;;
4208;SDS011;36320;48.860;2.380;2023-05-07T13:00:11;10.30;;;1.70;;
4208;SDS011;36320;48.860;2.380;2023-05-07T13:02:38;7.22;;;1.50;;
4208;SDS011;36320;48.860;2.380;2023-05-07T13:05:07;6.40;;;1.20;;
4208;SDS011;36320;48.860;2.380;2023-05-07T13:07:33;8.52;;;1.75;;
4208;SDS011;36320;48.860;2.380;2023-05-07T13:09:59;7.78;;;1.88;;
4208;SDS011;36320;48.860;2.380;2023-05-07T13:12:26;7.80;;;1.95;;
4208;SDS011;36320;48.860;2.380;2023-05-07T13:14:52;6.80;;;1.30;;
4208;SDS011;36320;48.860;2.380;2023-05-07T13:17:18;6.50;;;1.20;;
4208;SDS011;36320;48.860;2.380;2023-05-07T13:19:43;6.20;;;1.30;;
4208;SDS011;36320;48.860;2.380;2023-05-07T13:22:09;6.97;;;1.50;;
4208;SDS011;36320;48.860;2.380;2023-05-07T13:24:35;6.90;;;1.60;;
4208;SDS011;36320;48.860;2.380;2023-05-07T13:27:01;7.40;;;1.50;;
4208;SDS011;36320;48.860;2.380;2023-05-07T13:29:28;8.20;;;1.80;;
4208;SDS011;36320;48.860;2.380;2023-05-07T13:31:58;9.10;;;2.10;;
4208;SDS011;36320;48.860;2.380;2023-05-07T13:34:24;8.90;;;2.03;;
4208;SDS011;36320;48.860;2.380;2023-05-07T13:36:52;8.10;;;1.75;;
4208;SDS011;36320;48.860;2.380;2023-05-07T13:39:17;7.53;;;1.80;;
4208;SDS011;36320;48.860;2.380;2023-05-07T13:41:43;8.05;;;1.80;;
4208;SDS011;36320;48.860;2.380;2023-05-07T13:44:10;7.60;;;1.92;;
4208;SDS011;36320;48.860;2.380;2023-05-07T13:46:35;10.00;;;2.00;;
4208;SDS011;36320;48.860;2.380;2023-05-07T13:49:01;7.07;;;1.65;;
4208;SDS011;36320;48.860;2.380;2023-05-07T13:51:27;7.60;;;1.90;;
4208;SDS011;36320;48.860;2.380;2023-05-07T13:53:54;12.52;;;2.20;;
4208;SDS011;36320;48.860;2.380;2023-05-07T13:56:20;9.88;;;1.90;;
4208;SDS011;36320;48.860;2.380;2023-05-07T13:58:46;8.70;;;2.20;;
4208;SDS011;36320;48.860;2.380;2023-05-07T14:01:12;7.90;;;1.70;;
4208;SDS011;36320;48.860;2.380;2023-05-07T14:03:39;7.30;;;1.63;;
4208;SDS011;36320;48.860;2.380;2023-05-07T14:06:05;6.57;;;1.30;;
4208;SDS011;36320;48.860;2.380;2023-05-07T14:08:32;6.97;;;1.25;;
4208;SDS011;36320;48.860;2.380;2023-05-07T14:10:59;9.40;;;1.60;;
4208;SDS011;36320;48.860;2.380;2023-05-07T14:13:25;6.50;;;1.40;;
4208;SDS011;36320;48.860;2.380;2023-05-07T14:15:52;8.00;;;2.08;;
4208;SDS011;36320;48.860;2.380;2023-05-07T14:18:19;7.05;;;1.55;;
4208;SDS011;36320;48.860;2.380;2023-05-07T14:20:44;9.05;;;1.48;;
4208;SDS011;36320;48.860;2.380;2023-05-07T14:23:12;6.70;;;1.20;;
4208;SDS011;36320;48.860;2.380;2023-05-07T14:25:38;7.63;;;1.40;;
4208;SDS011;36320;48.860;2.380;2023-05-07T14:28:04;8.40;;;1.70;;
4208;SDS011;36320;48.860;2.380;2023-05-07T14:30:29;6.45;;;1.20;;
4208;SDS011;36320;48.860;2.380;2023-05-07T14:32:56;6.40;;;1.30;;
4208;SDS011;36320;48.860;2.380;2023-05-07T14:35:24;7.40;;;1.30;;
4208;SDS011;36320;48.860;2.380;2023-05-07T14:37:51;7.20;;;1.50;;
4208;SDS011;36320;48.860;2.380;2023-05-07T14:40:17;7.03;;;1.50;;
4208;SDS011;36320;48.860;2.380;2023-05-07T14:42:42;9.43;;;1.88;;
4208;SDS011;36320;48.860;2.380;2023-05-07T14:45:11;9.88;;;2.45;;
4208;SDS011;36320;48.860;2.380;2023-05-07T14:47:38;7.95;;;1.70;;
4208;SDS011;36320;48.860;2.380;2023-05-07T14:50:04;8.43;;;1.70;;
4208;SDS011;36320;48.860;2.380;2023-05-07T14:52:30;11.68;;;1.75;;
4208;SDS011;36320;48.860;2.380;2023-05-07T14:54:56;8.50;;;1.90;;
4208;SDS011;36320;48.860;2.380;2023-05-07T14:57:22;7.05;;;1.52;;
4208;SDS011;36320;48.860;2.380;2023-05-07T14:59:48;7.70;;;1.50;;
4208;SDS011;36320;48.860;2.380;2023-05-07T15:02:15;10.30;;;2.03;;
4208;SDS011;36320;48.860;2.380;2023-05-07T15:04:42;7.60;;;1.80;;
4208;SDS011;36320;48.860;2.380;2023-05-07T15:07:13;7.30;;;1.70;;
4208;SDS011;36320;48.860;2.380;2023-05-07T15:09:41;7.32;;;1.80;;
4208;SDS011;36320;48.860;2.380;2023-05-07T15:12:07;7.68;;;1.70;;
4208;SDS011;36320;48.860;2.380;2023-05-07T15:14:34;7.40;;;1.60;;
4208;SDS011;36320;48.860;2.380;2023-05-07T15:17:01;6.50;;;1.40;;
4208;SDS011;36320;48.860;2.380;2023-05-07T15:19:26;7.00;;;1.60;;
4208;SDS011;36320;48.860;2.380;2023-05-07T15:21:55;7.72;;;1.40;;
4208;SDS011;36320;48.860;2.380;2023-05-07T15:24:27;7.22;;;1.13;;